createdAt,value
2019-03-04T00:02:44.439Z,17.35
2019-03-04T00:06:48.048Z,17.37
2019-03-04T00:10:51.653Z,14.80
2019-03-04T00:14:55.268Z,20.50
2019-03-04T00:18:58.879Z,15.07
2019-03-04T00:23:02.472Z,12.87
2019-03-04T00:27:06.073Z,17.27
2019-03-04T00:31:09.680Z,11.60
2019-03-04T00:35:13.279Z,13.28
2019-03-04T00:39:16.887Z,20.92
2019-03-04T00:43:20.463Z,14.35
2019-03-04T00:47:24.060Z,17.13
2019-03-04T00:51:47.002Z,18.80
2019-03-04T00:55:50.599Z,17.50
2019-03-04T00:59:54.204Z,19.37
2019-03-04T01:03:57.789Z,14.63
2019-03-04T01:08:01.376Z,18.55
2019-03-04T01:12:05.132Z,21.37
2019-03-04T01:16:08.790Z,17.12
2019-03-04T01:20:14.734Z,12.20
2019-03-04T01:24:18.348Z,18.02
2019-03-04T01:28:21.927Z,16.10
2019-03-04T01:32:25.597Z,9.05
2019-03-04T01:36:29.201Z,18.52
2019-03-04T01:40:32.805Z,14.58
2019-03-04T01:44:36.375Z,14.55
2019-03-04T01:48:39.971Z,10.95
2019-03-04T01:52:44.013Z,18.35
2019-03-04T01:56:47.611Z,12.82
2019-03-04T02:00:51.227Z,19.45
2019-03-04T02:04:54.954Z,16.00
2019-03-04T02:08:58.523Z,16.70
2019-03-04T02:13:02.133Z,16.50
2019-03-04T02:17:05.848Z,12.65
2019-03-04T02:21:09.452Z,16.73
2019-03-04T02:25:15.292Z,11.00
2019-03-04T02:29:18.888Z,20.10
2019-03-04T02:33:22.487Z,16.95
2019-03-04T02:37:26.114Z,12.85
2019-03-04T02:41:29.712Z,16.23
2019-03-04T02:45:33.313Z,10.38
2019-03-04T02:49:36.884Z,9.40
2019-03-04T02:53:40.517Z,11.65
2019-03-04T02:57:44.377Z,15.17
2019-03-04T03:01:47.975Z,14.13
2019-03-04T03:05:51.572Z,8.80
2019-03-04T03:09:55.168Z,16.15
2019-03-04T03:13:58.842Z,8.30
2019-03-04T03:18:02.429Z,8.90
2019-03-04T03:22:06.029Z,9.10
2019-03-04T03:26:09.629Z,12.07
2019-03-04T03:30:16.334Z,11.43
2019-03-04T03:34:19.941Z,8.95
2019-03-04T03:38:23.520Z,10.85
2019-03-04T03:42:27.477Z,7.60
2019-03-04T03:46:31.085Z,10.03
2019-03-04T03:50:34.660Z,11.63
2019-03-04T03:54:38.326Z,10.95
2019-03-04T03:58:41.945Z,7.50
2019-03-04T04:02:45.550Z,12.47
2019-03-04T04:06:49.174Z,12.75
2019-03-04T04:10:52.757Z,8.85
2019-03-04T04:14:56.370Z,9.27
2019-03-04T04:19:00.022Z,9.13
2019-03-04T04:23:03.642Z,16.00
2019-03-04T04:27:07.308Z,13.40
2019-03-04T04:31:10.903Z,11.48
2019-03-04T04:35:14.492Z,11.60
2019-03-04T04:39:18.128Z,9.40
2019-03-04T04:43:21.744Z,8.33
2019-03-04T04:47:25.416Z,7.28
2019-03-04T04:51:29.042Z,13.55
2019-03-04T04:55:32.710Z,17.52
2019-03-04T04:59:36.306Z,12.07
2019-03-04T05:03:39.914Z,11.63
2019-03-04T05:07:43.674Z,11.28
2019-03-04T05:11:47.261Z,11.63
2019-03-04T05:15:50.839Z,6.95
2019-03-04T05:19:54.446Z,17.20
2019-03-04T05:23:58.076Z,9.35
2019-03-04T05:28:01.682Z,13.90
2019-03-04T05:32:05.300Z,8.85
2019-03-04T05:36:09.087Z,14.07
2019-03-04T05:40:17.400Z,11.55
2019-03-04T05:44:21.025Z,11.25
2019-03-04T05:48:24.634Z,11.70
2019-03-04T05:52:28.215Z,8.18
2019-03-04T05:56:31.801Z,9.40
2019-03-04T06:00:40.279Z,10.43
2019-03-04T06:04:43.989Z,9.95
2019-03-04T06:08:47.611Z,13.22
2019-03-04T06:12:51.237Z,8.60
2019-03-04T06:16:54.796Z,7.25
2019-03-04T06:20:58.407Z,13.48
2019-03-04T06:25:02.030Z,10.60
2019-03-04T06:29:05.640Z,9.13
2019-03-04T06:33:09.236Z,5.17
2019-03-04T06:37:12.828Z,11.63
2019-03-04T06:41:16.431Z,6.70
2019-03-04T06:45:20.899Z,10.58
2019-03-04T06:49:24.500Z,12.15
2019-03-04T06:53:31.186Z,7.58
2019-03-04T06:57:34.776Z,7.28
2019-03-04T07:01:56.955Z,10.28
2019-03-04T07:06:00.561Z,9.10
2019-03-04T07:10:07.009Z,4.90
2019-03-04T07:14:10.688Z,6.35
2019-03-04T07:18:14.912Z,6.28
2019-03-04T07:22:18.501Z,6.03
2019-03-04T07:26:22.524Z,8.38
2019-03-04T07:30:26.136Z,10.78
2019-03-04T07:34:29.806Z,4.50
2019-03-04T07:38:54.205Z,8.13
2019-03-04T07:42:57.780Z,6.17
2019-03-04T07:47:01.389Z,3.47
2019-03-04T07:51:18.828Z,4.03
2019-03-04T07:55:22.504Z,4.28
2019-03-04T07:59:26.108Z,2.95
2019-03-04T08:03:29.700Z,8.23
2019-03-04T08:07:45.204Z,2.20
2019-03-04T08:12:15.790Z,4.77
2019-03-04T08:16:19.461Z,6.35
2019-03-04T08:20:23.082Z,3.70
2019-03-04T08:24:26.696Z,2.60
2019-03-04T08:28:30.332Z,3.20
2019-03-04T08:32:33.931Z,5.12
2019-03-04T08:36:37.536Z,1.65
2019-03-04T08:40:41.147Z,2.33
2019-03-04T08:44:45.080Z,5.17
2019-03-04T08:48:48.688Z,0.98
2019-03-04T08:52:52.301Z,0.37
2019-03-04T08:57:03.636Z,2.58
2019-03-04T09:01:01.167Z,0.30
2019-03-04T09:05:08.088Z,0.10
2019-03-04T09:09:11.756Z,0.23
2019-03-04T09:13:15.347Z,1.25
2019-03-04T09:17:38.285Z,2.00
2019-03-04T09:21:42.022Z,0.25
2019-03-04T09:25:49.010Z,2.27
2019-03-04T09:29:52.582Z,0.50
2019-03-04T09:33:56.163Z,0.40
2019-03-04T09:37:59.740Z,0.75
2019-03-04T09:42:04.975Z,0.00
2019-03-04T09:46:08.558Z,0.00
2019-03-04T09:50:17.775Z,0.30
2019-03-04T09:54:21.454Z,0.57
2019-03-04T09:58:25.028Z,0.45
2019-03-04T10:02:28.684Z,1.55
2019-03-04T10:06:35.372Z,0.45
2019-03-04T10:10:48.075Z,0.28
2019-03-04T10:15:20.587Z,0.00
2019-03-04T10:19:43.857Z,1.90
2019-03-04T10:23:53.055Z,0.50
2019-03-04T10:28:23.655Z,1.15
2019-03-04T10:32:41.659Z,1.30
2019-03-04T10:37:03.247Z,0.62
2019-03-04T10:41:21.224Z,0.28
2019-03-04T10:45:53.591Z,4.60
2019-03-04T10:49:57.437Z,0.60
2019-03-04T10:54:01.120Z,2.37
2019-03-04T10:58:04.793Z,0.40
2019-03-04T11:02:08.368Z,3.58
2019-03-04T11:06:11.946Z,2.72
2019-03-04T11:10:15.665Z,0.65
2019-03-04T11:14:19.264Z,0.53
2019-03-04T11:18:22.861Z,1.85
2019-03-04T11:22:26.457Z,1.80
2019-03-04T11:26:30.104Z,0.65
2019-03-04T11:30:33.764Z,1.02
2019-03-04T11:34:37.332Z,0.40
2019-03-04T11:38:50.208Z,1.27
2019-03-04T11:42:53.864Z,6.03
2019-03-04T11:46:57.459Z,2.27
2019-03-04T11:51:01.043Z,1.83
2019-03-04T11:55:06.923Z,1.37
2019-03-04T11:59:10.530Z,2.83
2019-03-04T12:03:14.137Z,1.15
2019-03-04T12:07:17.716Z,3.08
2019-03-04T12:11:21.311Z,6.08
2019-03-04T12:15:24.907Z,7.00
2019-03-04T12:19:28.891Z,1.42
2019-03-04T12:23:32.499Z,1.52
2019-03-04T12:27:36.066Z,2.83
2019-03-04T12:31:41.312Z,2.55
2019-03-04T12:35:45.176Z,1.53
2019-03-04T12:39:48.763Z,2.20
2019-03-04T12:43:52.364Z,5.25
2019-03-04T12:47:55.945Z,0.05
2019-03-04T12:51:59.591Z,2.05
2019-03-04T12:56:03.250Z,0.03
2019-03-04T13:00:12.764Z,0.17
2019-03-04T13:04:16.376Z,0.03
2019-03-04T13:08:19.968Z,0.90
2019-03-04T13:12:23.610Z,0.13
2019-03-04T13:16:27.997Z,5.17
2019-03-04T13:20:32.310Z,2.87
2019-03-04T13:24:35.923Z,1.00
2019-03-04T13:28:39.499Z,0.30
2019-03-04T13:32:43.280Z,0.45
2019-03-04T13:36:46.874Z,1.12
2019-03-04T13:40:50.478Z,4.87
2019-03-04T13:44:54.072Z,1.37
2019-03-04T13:48:57.647Z,0.10
2019-03-04T13:53:01.663Z,0.23
2019-03-04T13:57:05.368Z,0.40
2019-03-04T14:01:09.026Z,2.17
2019-03-04T14:05:14.561Z,1.27
2019-03-04T14:09:19.615Z,0.45
2019-03-04T14:13:23.275Z,0.60
2019-03-04T14:17:26.857Z,1.22
2019-03-04T14:21:30.431Z,0.82
2019-03-04T14:25:34.080Z,0.98
2019-03-04T14:29:37.759Z,0.40
2019-03-04T14:33:41.336Z,0.85
2019-03-04T14:37:45.556Z,1.70
2019-03-04T14:41:49.143Z,1.55
2019-03-04T14:45:54.309Z,0.65
2019-03-04T14:50:09.232Z,1.27
2019-03-04T14:54:03.451Z,0.83
2019-03-04T14:58:07.027Z,1.33
2019-03-04T15:02:10.680Z,0.70
2019-03-04T15:06:14.265Z,0.37
2019-03-04T15:10:17.873Z,7.45
2019-03-04T15:14:21.452Z,3.40
2019-03-04T15:18:25.033Z,5.40
2019-03-04T15:22:34.993Z,2.65
2019-03-04T15:26:41.727Z,15.53
2019-03-04T15:30:39.316Z,4.35
2019-03-04T15:34:42.900Z,12.10
2019-03-04T15:38:46.480Z,3.67
2019-03-04T15:42:50.063Z,2.33
2019-03-04T15:46:53.653Z,2.50
2019-03-04T15:50:57.315Z,2.15
2019-03-04T15:55:00.895Z,1.13
2019-03-04T15:59:04.615Z,1.63
2019-03-04T16:03:08.364Z,8.07
2019-03-04T16:07:12.787Z,1.00
2019-03-04T16:11:16.371Z,1.37
2019-03-04T16:15:22.786Z,4.50
2019-03-04T16:19:26.364Z,6.53
2019-03-04T16:23:29.954Z,2.02
2019-03-04T16:27:33.540Z,3.30
2019-03-04T16:31:37.123Z,0.55
2019-03-04T16:35:40.729Z,0.98
2019-03-04T16:39:44.308Z,0.53
2019-03-04T16:43:47.890Z,2.72
2019-03-04T16:47:51.544Z,3.92
2019-03-04T16:51:55.423Z,2.27
2019-03-04T16:55:58.991Z,4.05
2019-03-04T17:00:02.951Z,15.88
2019-03-04T17:04:06.644Z,5.30
2019-03-04T17:08:10.236Z,1.07
2019-03-04T17:12:13.808Z,5.30
2019-03-04T17:16:36.828Z,2.33
2019-03-04T17:20:40.418Z,4.42
2019-03-04T17:24:45.664Z,8.20
2019-03-04T17:28:49.284Z,6.97
2019-03-04T17:32:53.003Z,3.92
2019-03-04T17:36:56.619Z,2.02
2019-03-04T17:41:00.192Z,2.17
2019-03-04T17:45:04.603Z,3.37
2019-03-04T17:49:08.191Z,2.77
2019-03-04T17:53:13.316Z,12.23
2019-03-04T17:57:16.989Z,2.93
2019-03-04T18:01:20.573Z,7.42
2019-03-04T18:05:24.174Z,6.85
2019-03-04T18:09:27.748Z,5.62
2019-03-04T18:13:31.501Z,10.25
2019-03-04T18:17:35.102Z,9.88
2019-03-04T18:21:38.682Z,2.52
2019-03-04T18:25:50.798Z,6.90
2019-03-04T18:30:18.479Z,4.53
2019-03-04T18:34:37.001Z,3.60
2019-03-04T18:38:49.643Z,1.95
2019-03-04T18:42:59.032Z,5.53
2019-03-04T18:47:22.484Z,6.63
2019-03-04T18:51:30.773Z,4.53
2019-03-04T18:55:49.272Z,5.97
2019-03-04T18:59:53.558Z,3.33
2019-03-04T19:03:57.158Z,3.30
2019-03-04T19:08:01.368Z,9.78
2019-03-04T19:12:05.406Z,5.78
2019-03-04T19:16:09.802Z,4.17
2019-03-04T19:20:17.103Z,7.47
2019-03-04T19:24:21.327Z,2.85
2019-03-04T19:28:25.972Z,6.28
2019-03-04T19:32:30.024Z,8.10
2019-03-04T19:36:34.189Z,3.02
2019-03-04T19:40:38.621Z,5.97
2019-03-04T19:44:42.925Z,9.10
2019-03-04T19:48:46.981Z,4.83
2019-03-04T19:52:51.136Z,8.83
2019-03-04T19:56:55.100Z,1.45
2019-03-04T20:00:59.683Z,2.55
2019-03-04T20:05:04.074Z,4.33
2019-03-04T20:09:09.223Z,1.37
2019-03-04T20:13:12.867Z,8.33
2019-03-04T20:17:17.027Z,3.83
2019-03-04T20:21:21.163Z,2.67
2019-03-04T20:25:28.715Z,6.87
2019-03-04T20:29:33.234Z,5.00
2019-03-04T20:33:37.470Z,2.40
2019-03-04T20:37:44.958Z,1.92
2019-03-04T20:41:48.596Z,12.90
2019-03-04T20:45:52.271Z,12.33
2019-03-04T20:49:55.878Z,2.70
2019-03-04T20:53:59.468Z,7.62
2019-03-04T20:58:03.140Z,4.22
2019-03-04T21:02:06.851Z,1.95
2019-03-04T21:06:10.596Z,2.60
2019-03-04T21:10:15.135Z,7.47
2019-03-04T21:14:18.721Z,2.67
2019-03-04T21:18:22.482Z,7.53
2019-03-04T21:22:26.340Z,1.92
2019-03-04T21:26:30.075Z,10.18
2019-03-04T21:30:57.707Z,6.40
2019-03-04T21:35:04.371Z,5.85
2019-03-04T21:39:11.041Z,4.57
2019-03-04T21:43:20.872Z,7.23
2019-03-04T21:47:33.290Z,4.78
2019-03-04T21:51:45.525Z,4.55
2019-03-04T21:55:57.921Z,11.30
2019-03-04T22:00:01.582Z,5.17
2019-03-04T22:04:05.489Z,4.15
2019-03-04T22:08:09.211Z,9.70
2019-03-04T22:12:15.615Z,4.37
2019-03-04T22:16:19.191Z,3.40
2019-03-04T22:20:22.768Z,4.67
2019-03-04T22:24:26.367Z,7.22
2019-03-04T22:28:29.976Z,10.40
2019-03-04T22:32:33.566Z,6.62
2019-03-04T22:36:37.140Z,8.48
2019-03-04T22:40:40.705Z,8.15
2019-03-04T22:44:44.296Z,8.30
2019-03-04T22:48:47.948Z,7.25
2019-03-04T22:52:51.706Z,10.30
2019-03-04T22:56:55.332Z,6.20
2019-03-04T23:01:03.632Z,13.83
2019-03-04T23:05:10.477Z,14.68
2019-03-04T23:09:17.255Z,6.42
2019-03-04T23:13:26.589Z,3.50
2019-03-04T23:17:30.156Z,4.65
2019-03-04T23:21:33.780Z,4.92
2019-03-04T23:25:37.443Z,8.20
2019-03-04T23:29:41.028Z,7.85
2019-03-04T23:33:44.620Z,9.08
2019-03-04T23:37:48.354Z,11.60
2019-03-04T23:41:51.933Z,10.65
2019-03-04T23:45:55.545Z,3.58
2019-03-04T23:50:17.160Z,4.78
2019-03-04T23:54:20.764Z,12.25
2019-03-04T23:58:24.472Z,5.92
